createdAt,value
2022-12-24T00:01:18.292Z,2.10
2022-12-24T00:03:44.832Z,2.55
2022-12-24T00:06:20.863Z,1.80
2022-12-24T00:08:47.913Z,1.67
2022-12-24T00:11:14.862Z,1.80
2022-12-24T00:13:41.388Z,1.08
2022-12-24T00:16:07.872Z,0.68
2022-12-24T00:18:37.512Z,0.57
2022-12-24T00:21:08.167Z,0.43
2022-12-24T00:23:34.731Z,1.00
2022-12-24T00:26:01.272Z,0.75
2022-12-24T00:28:30.980Z,0.98
2022-12-24T00:31:07.026Z,1.15
2022-12-24T00:33:33.548Z,2.08
2022-12-24T00:36:00.109Z,0.65
2022-12-24T00:38:27.914Z,0.85
2022-12-24T00:41:02.316Z,0.63
2022-12-24T00:43:32.334Z,1.30
2022-12-24T00:46:00.783Z,1.85
2022-12-24T00:48:29.683Z,1.77
2022-12-24T00:50:56.234Z,0.90
2022-12-24T00:53:22.852Z,2.58
2022-12-24T00:55:49.336Z,2.08
2022-12-24T00:58:15.991Z,1.15
2022-12-24T01:00:42.494Z,1.30
2022-12-24T01:03:09.112Z,2.50
2022-12-24T01:05:35.769Z,0.80
2022-12-24T01:08:02.284Z,3.05
2022-12-24T01:10:31.158Z,0.65
2022-12-24T01:12:57.665Z,1.02
2022-12-24T01:15:24.206Z,0.93
2022-12-24T01:17:50.761Z,3.20
2022-12-24T01:20:18.116Z,1.98
2022-12-24T01:22:44.774Z,3.03
2022-12-24T01:25:11.724Z,5.60
2022-12-24T01:27:38.664Z,0.98
2022-12-24T01:30:07.353Z,2.05
2022-12-24T01:32:33.905Z,2.33
2022-12-24T01:35:00.681Z,1.17
2022-12-24T01:37:27.172Z,1.48
2022-12-24T01:40:13.673Z,1.13
2022-12-24T01:43:06.975Z,1.88
2022-12-24T01:45:48.295Z,0.77
2022-12-24T01:48:35.841Z,2.67
2022-12-24T01:51:27.326Z,3.28
2022-12-24T01:54:06.289Z,2.50
2022-12-24T01:56:40.169Z,4.45
2022-12-24T01:59:10.526Z,4.32
2022-12-24T02:01:37.615Z,1.90
2022-12-24T02:04:13.423Z,4.30
2022-12-24T02:06:39.936Z,4.43
2022-12-24T02:09:07.265Z,1.45
2022-12-24T02:11:41.265Z,0.75
2022-12-24T02:14:08.128Z,3.75
2022-12-24T02:16:53.486Z,3.53
2022-12-24T02:19:35.224Z,4.88
2022-12-24T02:22:17.375Z,4.97
2022-12-24T02:25:02.155Z,2.55
2022-12-24T02:28:07.560Z,2.53
2022-12-24T02:30:43.693Z,2.17
2022-12-24T02:33:42.225Z,2.03
2022-12-24T02:36:16.901Z,1.92
2022-12-24T02:38:58.953Z,2.33
2022-12-24T02:41:50.116Z,2.90
2022-12-24T02:44:19.152Z,2.83
2022-12-24T02:46:47.725Z,6.55
2022-12-24T02:49:14.346Z,2.17
2022-12-24T02:51:40.874Z,2.75
2022-12-24T02:54:07.823Z,2.05
2022-12-24T02:57:03.481Z,3.92
2022-12-24T02:59:51.193Z,1.77
2022-12-24T03:02:53.044Z,7.18
2022-12-24T03:05:28.172Z,9.25
2022-12-24T03:08:28.029Z,2.97
2022-12-24T03:11:02.639Z,5.07
2022-12-24T03:13:29.760Z,3.30
2022-12-24T03:15:56.391Z,2.33
2022-12-24T03:18:26.320Z,6.97
2022-12-24T03:21:26.581Z,3.20
2022-12-24T03:23:54.510Z,1.65
2022-12-24T03:26:21.735Z,1.88
2022-12-24T03:28:48.974Z,6.88
2022-12-24T03:31:16.712Z,3.20
2022-12-24T03:33:43.241Z,2.83
2022-12-24T03:36:10.255Z,8.18
2022-12-24T03:38:39.364Z,2.00
2022-12-24T03:41:06.338Z,3.33
2022-12-24T03:43:33.427Z,2.70
2022-12-24T03:46:06.330Z,1.98
2022-12-24T03:48:35.246Z,3.92
2022-12-24T03:51:02.395Z,7.75
2022-12-24T03:53:29.000Z,6.35
2022-12-24T03:55:55.586Z,2.45
2022-12-24T03:58:22.082Z,2.85
2022-12-24T04:00:48.611Z,3.30
2022-12-24T04:03:15.270Z,3.67
2022-12-24T04:05:41.918Z,3.33
2022-12-24T04:08:08.400Z,3.05
2022-12-24T04:10:34.929Z,1.85
2022-12-24T04:13:01.454Z,1.67
2022-12-24T04:15:27.940Z,3.60
2022-12-24T04:17:54.453Z,6.78
2022-12-24T04:20:20.956Z,1.52
2022-12-24T04:22:47.487Z,2.72
2022-12-24T04:25:14.088Z,0.90
2022-12-24T04:27:43.413Z,1.95
2022-12-24T04:30:13.330Z,2.30
2022-12-24T04:32:39.905Z,5.60
2022-12-24T04:35:06.743Z,3.47
2022-12-24T04:37:34.516Z,9.75
2022-12-24T04:40:00.993Z,6.72
2022-12-24T04:42:27.549Z,4.85
2022-12-24T04:44:54.051Z,3.08
2022-12-24T04:47:20.528Z,5.63
2022-12-24T04:49:47.039Z,5.97
2022-12-24T04:52:13.580Z,5.50
2022-12-24T04:54:40.100Z,5.25
2022-12-24T04:57:06.622Z,3.08
2022-12-24T04:59:33.111Z,6.35
2022-12-24T05:01:59.819Z,2.67
2022-12-24T05:04:26.413Z,3.90
2022-12-24T05:06:52.912Z,6.05
2022-12-24T05:09:19.415Z,4.43
2022-12-24T05:11:45.898Z,6.38
2022-12-24T05:14:15.685Z,4.20
2022-12-24T05:16:43.972Z,5.38
2022-12-24T05:19:10.517Z,4.70
2022-12-24T05:21:37.113Z,5.85
2022-12-24T05:24:22.895Z,10.35
2022-12-24T05:26:54.632Z,3.55
2022-12-24T05:29:21.496Z,5.03
2022-12-24T05:31:48.140Z,4.70
2022-12-24T05:34:16.000Z,9.52
2022-12-24T05:36:44.552Z,6.82
2022-12-24T05:39:18.384Z,11.90
2022-12-24T05:41:47.905Z,3.22
2022-12-24T05:44:16.205Z,9.50
2022-12-24T05:46:46.038Z,10.15
2022-12-24T05:49:12.858Z,7.55
2022-12-24T05:51:40.465Z,7.20
2022-12-24T05:54:07.697Z,5.80
2022-12-24T05:56:34.251Z,4.35
2022-12-24T05:59:00.781Z,3.78
2022-12-24T06:01:27.998Z,4.97
2022-12-24T06:03:54.571Z,8.05
2022-12-24T06:06:24.530Z,6.13
2022-12-24T06:08:52.630Z,10.38
2022-12-24T06:11:22.459Z,5.88
2022-12-24T06:13:48.995Z,10.93
2022-12-24T06:16:18.477Z,4.47
2022-12-24T06:18:47.929Z,7.53
2022-12-24T06:21:17.454Z,8.43
2022-12-24T06:23:45.033Z,8.40
2022-12-24T06:26:20.220Z,10.20
2022-12-24T06:28:47.740Z,5.28
2022-12-24T06:31:16.714Z,10.02
2022-12-24T06:33:43.822Z,5.03
2022-12-24T06:36:17.439Z,7.63
2022-12-24T06:38:45.684Z,6.38
2022-12-24T06:41:12.228Z,8.63
2022-12-24T06:43:38.837Z,9.82
2022-12-24T06:46:05.728Z,8.73
2022-12-24T06:48:32.324Z,16.00
2022-12-24T06:51:01.385Z,7.72
2022-12-24T06:53:27.901Z,6.68
2022-12-24T06:56:01.723Z,9.65
2022-12-24T06:58:28.217Z,15.93
2022-12-24T07:00:54.722Z,6.05
2022-12-24T07:03:21.230Z,9.88
2022-12-24T07:05:51.043Z,16.60
2022-12-24T07:08:20.823Z,6.53
2022-12-24T07:10:54.348Z,7.30
2022-12-24T07:13:21.576Z,11.40
2022-12-24T07:16:02.116Z,9.07
2022-12-24T07:18:29.183Z,9.43
2022-12-24T07:20:55.805Z,11.63
2022-12-24T07:23:22.821Z,8.18
2022-12-24T07:25:49.373Z,7.40
2022-12-24T07:28:17.402Z,8.80
2022-12-24T07:30:44.162Z,12.98
2022-12-24T07:33:10.654Z,8.05
2022-12-24T07:35:37.163Z,10.07
2022-12-24T07:38:03.689Z,6.70
2022-12-24T07:40:30.239Z,5.53
2022-12-24T07:42:56.786Z,11.00
2022-12-24T07:45:23.311Z,9.10
2022-12-24T07:47:49.835Z,10.82
2022-12-24T07:50:18.462Z,6.43
2022-12-24T07:52:45.013Z,5.28
2022-12-24T07:55:11.535Z,11.27
2022-12-24T07:57:38.102Z,8.20
2022-12-24T08:00:05.144Z,16.48
2022-12-24T08:02:31.819Z,9.65
2022-12-24T08:04:58.480Z,8.70
2022-12-24T08:07:25.019Z,10.25
2022-12-24T08:09:51.510Z,12.50
2022-12-24T08:12:18.626Z,10.65
2022-12-24T08:14:45.127Z,7.05
2022-12-24T08:17:11.674Z,12.90
2022-12-24T08:19:38.213Z,6.60
2022-12-24T08:22:04.711Z,6.07
2022-12-24T08:24:31.275Z,9.98
2022-12-24T08:26:57.774Z,13.00
2022-12-24T08:29:24.282Z,13.10
2022-12-24T08:31:50.929Z,6.15
2022-12-24T08:34:20.316Z,7.32
2022-12-24T08:36:49.956Z,8.55
2022-12-24T08:39:27.209Z,7.65
2022-12-24T08:41:53.715Z,7.82
2022-12-24T08:44:20.358Z,6.22
2022-12-24T08:46:49.688Z,10.88
2022-12-24T08:49:18.703Z,4.32
2022-12-24T08:51:45.228Z,6.72
2022-12-24T08:54:11.724Z,14.15
2022-12-24T08:56:38.618Z,5.63
2022-12-24T08:59:05.288Z,7.40
2022-12-24T09:01:32.049Z,10.70
2022-12-24T09:03:58.632Z,9.38
2022-12-24T09:06:25.148Z,8.82
2022-12-24T09:08:51.658Z,7.22
2022-12-24T09:11:20.230Z,6.63
2022-12-24T09:13:49.982Z,6.85
2022-12-24T09:16:20.966Z,12.05
2022-12-24T09:18:50.657Z,6.85
2022-12-24T09:21:20.364Z,7.45
2022-12-24T09:23:49.977Z,6.07
2022-12-24T09:26:26.341Z,6.60
2022-12-24T09:28:53.812Z,6.25
2022-12-24T09:31:21.556Z,4.63
2022-12-24T09:33:51.700Z,5.90
2022-12-24T09:36:22.536Z,7.97
2022-12-24T09:38:49.181Z,5.95
2022-12-24T09:41:48.332Z,5.75
2022-12-24T09:44:25.451Z,5.68
2022-12-24T09:46:53.712Z,6.50
2022-12-24T09:49:31.108Z,5.32
2022-12-24T09:52:02.775Z,4.75
2022-12-24T09:54:34.772Z,4.70
2022-12-24T09:57:07.563Z,10.43
2022-12-24T09:59:45.400Z,4.88
2022-12-24T10:02:18.711Z,5.25
2022-12-24T10:04:47.865Z,5.00
2022-12-24T10:07:57.800Z,7.93
2022-12-24T10:10:48.589Z,4.30
2022-12-24T10:13:39.235Z,4.43
2022-12-24T10:16:50.069Z,6.32
2022-12-24T10:19:40.895Z,4.55
2022-12-24T10:22:22.701Z,4.32
2022-12-24T10:25:29.780Z,4.53
2022-12-24T10:27:59.698Z,4.32
2022-12-24T10:30:26.652Z,4.82
2022-12-24T10:32:56.791Z,4.72
2022-12-24T10:35:32.313Z,4.78
2022-12-24T10:37:58.889Z,5.93
2022-12-24T10:40:40.398Z,4.38
2022-12-24T10:43:28.482Z,5.38
2022-12-24T10:46:02.137Z,4.07
2022-12-24T10:48:58.205Z,4.40
2022-12-24T10:51:36.940Z,5.82
2022-12-24T10:54:07.857Z,4.25
2022-12-24T10:56:44.019Z,3.72
2022-12-24T10:59:33.709Z,5.82
2022-12-24T11:02:01.749Z,3.60
2022-12-24T11:04:31.599Z,5.07
2022-12-24T11:07:04.233Z,4.20
2022-12-24T11:09:32.314Z,4.20
2022-12-24T11:12:08.464Z,4.03
2022-12-24T11:14:41.160Z,3.95
2022-12-24T11:17:19.169Z,4.88
2022-12-24T11:19:51.663Z,4.07
2022-12-24T11:22:24.433Z,3.88
2022-12-24T11:25:25.407Z,4.28
2022-12-24T11:27:52.416Z,4.40
2022-12-24T11:30:26.783Z,8.10
2022-12-24T11:33:02.260Z,4.22
2022-12-24T11:35:32.391Z,4.50
2022-12-24T11:38:01.910Z,4.35
2022-12-24T11:40:36.730Z,4.22
2022-12-24T11:43:10.965Z,4.43
2022-12-24T11:45:53.631Z,4.40
2022-12-24T11:48:50.790Z,4.65
2022-12-24T11:51:26.030Z,4.47
2022-12-24T11:54:14.450Z,8.00
2022-12-24T11:56:45.378Z,7.25
2022-12-24T11:59:32.147Z,4.10
2022-12-24T12:02:11.194Z,4.10
2022-12-24T12:04:40.822Z,4.18
2022-12-24T12:07:30.476Z,3.70
2022-12-24T12:10:05.192Z,4.43
2022-12-24T12:12:40.479Z,5.25
2022-12-24T12:15:15.230Z,4.10
2022-12-24T12:18:01.377Z,4.10
2022-12-24T12:20:42.810Z,6.30
2022-12-24T12:23:27.881Z,4.35
2022-12-24T12:25:59.166Z,3.55
2022-12-24T12:28:34.232Z,3.60
2022-12-24T12:31:15.785Z,4.10
2022-12-24T12:33:56.868Z,6.82
2022-12-24T12:36:40.468Z,3.85
2022-12-24T12:39:12.276Z,3.33
2022-12-24T12:41:56.782Z,3.13
2022-12-24T12:45:01.133Z,3.75
2022-12-24T12:47:55.373Z,4.32
2022-12-24T12:50:40.703Z,4.00
2022-12-24T12:53:28.360Z,4.50
2022-12-24T12:56:28.220Z,4.95
2022-12-24T12:59:08.290Z,5.00
2022-12-24T13:01:35.112Z,3.00
2022-12-24T13:04:35.872Z,4.75
2022-12-24T13:07:24.270Z,3.05
2022-12-24T13:10:13.823Z,2.85
2022-12-24T13:12:55.168Z,7.22
2022-12-24T13:15:30.580Z,4.00
2022-12-24T13:18:37.737Z,3.03
2022-12-24T13:21:04.591Z,3.72
2022-12-24T13:23:31.329Z,4.65
2022-12-24T13:25:59.301Z,3.95
2022-12-24T13:28:25.772Z,3.20
2022-12-24T13:31:01.343Z,6.70
2022-12-24T13:33:34.055Z,5.45
2022-12-24T13:36:16.630Z,9.60
2022-12-24T13:38:49.891Z,5.28
2022-12-24T13:41:41.812Z,12.07
2022-12-24T13:44:13.535Z,8.00
2022-12-24T13:46:49.689Z,9.70
2022-12-24T13:49:36.233Z,9.32
2022-12-24T13:52:07.383Z,6.20
2022-12-24T13:54:35.561Z,3.15
2022-12-24T13:57:02.180Z,6.47
2022-12-24T13:59:38.842Z,5.20
2022-12-24T14:02:17.311Z,3.03
2022-12-24T14:04:44.296Z,5.57
2022-12-24T14:07:11.661Z,4.30
2022-12-24T14:09:38.326Z,6.95
2022-12-24T14:12:04.796Z,6.97
2022-12-24T14:14:35.003Z,7.05
2022-12-24T14:17:06.807Z,8.75
2022-12-24T14:19:40.828Z,5.38
2022-12-24T14:22:25.591Z,5.70
2022-12-24T14:24:57.965Z,5.15
2022-12-24T14:27:51.625Z,6.63
2022-12-24T14:30:29.793Z,4.25
2022-12-24T14:32:56.960Z,5.20
2022-12-24T14:35:25.355Z,7.88
2022-12-24T14:38:04.077Z,6.13
2022-12-24T14:40:53.486Z,5.63
2022-12-24T14:43:35.965Z,6.35
2022-12-24T14:46:21.640Z,6.20
2022-12-24T14:48:58.941Z,4.78
2022-12-24T14:51:39.373Z,6.05
2022-12-24T14:54:17.761Z,6.32
2022-12-24T14:56:44.474Z,5.93
2022-12-24T14:59:21.218Z,7.82
2022-12-24T15:01:47.936Z,8.57
2022-12-24T15:04:16.391Z,6.85
2022-12-24T15:06:49.987Z,5.65
2022-12-24T15:09:27.434Z,5.90
2022-12-24T15:11:57.095Z,4.30
2022-12-24T15:14:26.597Z,5.43
2022-12-24T15:17:01.948Z,5.95
2022-12-24T15:19:35.903Z,4.82
2022-12-24T15:22:04.684Z,6.43
2022-12-24T15:24:36.745Z,5.32
2022-12-24T15:27:15.351Z,7.75
2022-12-24T15:29:46.954Z,5.07
2022-12-24T15:32:15.326Z,6.63
2022-12-24T15:34:55.824Z,7.75
2022-12-24T15:37:27.184Z,5.93
2022-12-24T15:40:10.710Z,4.70
2022-12-24T15:42:42.446Z,4.43
2022-12-24T15:45:28.380Z,6.50
2022-12-24T15:48:10.513Z,6.10
2022-12-24T15:50:45.966Z,7.38
2022-12-24T15:53:22.218Z,5.75
2022-12-24T15:56:09.498Z,8.77
2022-12-24T15:58:44.569Z,8.68
2022-12-24T16:01:14.307Z,4.78
2022-12-24T16:03:54.529Z,6.90
2022-12-24T16:06:23.271Z,6.57
2022-12-24T16:08:52.739Z,6.28
2022-12-24T16:11:36.427Z,5.22
2022-12-24T16:14:13.256Z,3.90
2022-12-24T16:16:45.709Z,3.58
2022-12-24T16:19:23.428Z,3.05
2022-12-24T16:21:55.878Z,2.13
2022-12-24T16:24:30.483Z,1.27
2022-12-24T16:26:57.900Z,1.90
2022-12-24T16:29:24.682Z,4.03
2022-12-24T16:31:56.118Z,2.28
2022-12-24T16:34:26.877Z,4.07
2022-12-24T16:36:54.027Z,3.60
2022-12-24T16:39:30.199Z,2.80
2022-12-24T16:42:17.979Z,5.05
2022-12-24T16:44:45.003Z,4.25
2022-12-24T16:47:22.962Z,2.88
2022-12-24T16:49:53.374Z,2.25
2022-12-24T16:52:26.346Z,2.83
2022-12-24T16:54:53.107Z,3.92
2022-12-24T16:57:23.852Z,3.42
2022-12-24T16:59:53.822Z,1.85
2022-12-24T17:02:23.484Z,4.28
2022-12-24T17:04:53.155Z,7.15
2022-12-24T17:07:23.626Z,13.80
2022-12-24T17:09:53.000Z,8.38
2022-12-24T17:12:22.801Z,19.30
2022-12-24T17:14:52.338Z,12.48
2022-12-24T17:17:24.245Z,10.50
2022-12-24T17:19:54.754Z,9.60
2022-12-24T17:22:27.251Z,8.20
2022-12-24T17:24:55.277Z,7.63
2022-12-24T17:27:22.058Z,10.68
2022-12-24T17:29:51.505Z,8.07
2022-12-24T17:32:19.591Z,7.18
2022-12-24T17:34:46.254Z,8.88
2022-12-24T17:37:12.933Z,7.20
2022-12-24T17:39:39.858Z,6.18
2022-12-24T17:42:11.270Z,8.07
2022-12-24T17:44:43.787Z,14.55
2022-12-24T17:47:10.976Z,9.68
2022-12-24T17:49:37.666Z,24.52
2022-12-24T17:52:04.849Z,20.98
2022-12-24T17:54:31.550Z,11.63
2022-12-24T17:56:58.797Z,13.70
2022-12-24T17:59:25.575Z,14.77
2022-12-24T18:01:55.470Z,9.77
2022-12-24T18:04:22.093Z,8.48
2022-12-24T18:06:53.885Z,8.27
2022-12-24T18:09:26.201Z,9.15
2022-12-24T18:11:54.918Z,9.40
2022-12-24T18:14:24.185Z,7.13
2022-12-24T18:16:53.808Z,7.30
2022-12-24T18:19:23.484Z,7.57
2022-12-24T18:22:21.024Z,6.72
2022-12-24T18:25:56.812Z,6.00
2022-12-24T18:28:24.347Z,8.38
2022-12-24T18:31:03.872Z,7.38
2022-12-24T18:33:45.532Z,4.50
2022-12-24T18:36:12.400Z,10.00
2022-12-24T18:38:40.350Z,6.10
2022-12-24T18:41:10.025Z,9.02
2022-12-24T18:43:43.501Z,13.23
2022-12-24T18:46:18.027Z,6.68
2022-12-24T18:48:58.715Z,7.47
2022-12-24T18:52:04.798Z,6.43
2022-12-24T18:54:31.376Z,8.88
2022-12-24T18:56:57.906Z,10.95
2022-12-24T18:59:24.503Z,9.10
2022-12-24T19:01:51.997Z,7.07
2022-12-24T19:04:22.023Z,7.15
2022-12-24T19:06:53.398Z,8.75
2022-12-24T19:09:23.049Z,7.93
2022-12-24T19:11:52.230Z,6.80
2022-12-24T19:14:24.449Z,5.85
2022-12-24T19:16:54.069Z,9.77
2022-12-24T19:19:57.152Z,9.57
2022-12-24T19:22:53.830Z,11.02
2022-12-24T19:25:55.101Z,7.70
2022-12-24T19:28:26.054Z,10.10
2022-12-24T19:30:53.080Z,8.50
2022-12-24T19:33:23.786Z,7.10
2022-12-24T19:35:53.200Z,6.20
2022-12-24T19:38:31.087Z,10.77
2022-12-24T19:40:57.662Z,10.05
2022-12-24T19:46:14.258Z,7.45
2022-12-24T19:48:47.801Z,14.68
2022-12-24T19:51:14.299Z,8.80
2022-12-24T19:53:40.867Z,9.90
2022-12-24T19:56:10.441Z,8.77
2022-12-24T19:58:55.903Z,11.57
2022-12-24T20:01:38.288Z,15.57
2022-12-24T20:04:05.184Z,11.20
2022-12-24T20:06:34.247Z,10.40
2022-12-24T20:09:06.288Z,15.40
2022-12-24T20:11:33.671Z,10.38
2022-12-24T20:14:02.413Z,12.20
2022-12-24T20:16:29.777Z,8.13
2022-12-24T20:18:59.111Z,9.38
2022-12-24T20:21:26.626Z,12.02
2022-12-24T20:23:53.627Z,7.85
2022-12-24T20:26:26.162Z,10.18
2022-12-24T20:28:53.138Z,8.48
2022-12-24T20:31:23.669Z,10.60
2022-12-24T20:33:52.692Z,6.75
2022-12-24T20:36:24.490Z,7.95
2022-12-24T20:38:54.435Z,5.88
2022-12-24T20:41:25.134Z,11.25
2022-12-24T20:43:51.930Z,7.15
2022-12-24T20:46:23.287Z,7.38
2022-12-24T20:48:53.826Z,8.70
2022-12-24T20:51:25.985Z,10.52
2022-12-24T20:53:55.241Z,6.95
2022-12-24T20:56:22.300Z,6.18
2022-12-24T20:58:49.449Z,5.13
2022-12-24T21:01:24.251Z,5.82
2022-12-24T21:03:53.471Z,11.57
2022-12-24T21:06:24.611Z,7.82
2022-12-24T21:08:54.579Z,4.82
2022-12-24T21:11:42.359Z,6.97
2022-12-24T21:14:09.410Z,12.15
2022-12-24T21:16:37.118Z,8.85
2022-12-24T21:19:04.607Z,10.82
2022-12-24T21:21:31.476Z,9.52
2022-12-24T21:24:01.421Z,10.15
2022-12-24T21:26:30.070Z,8.55
2022-12-24T21:28:56.773Z,7.90
2022-12-24T21:31:23.427Z,11.77
2022-12-24T21:33:55.276Z,10.30
2022-12-24T21:36:26.971Z,10.88
2022-12-24T21:38:56.856Z,9.38
2022-12-24T21:41:23.787Z,3.97
2022-12-24T21:43:53.150Z,4.28
2022-12-24T21:46:25.243Z,3.10
2022-12-24T21:49:27.733Z,6.10
2022-12-24T21:51:54.240Z,5.38
2022-12-24T21:54:30.551Z,3.72
2022-12-24T21:57:25.030Z,6.32
2022-12-24T21:59:54.303Z,5.15
2022-12-24T22:02:28.587Z,3.88
2022-12-24T22:04:55.379Z,5.53
2022-12-24T22:07:46.291Z,5.75
2022-12-24T22:10:32.767Z,2.35
2022-12-24T22:13:00.814Z,4.38
2022-12-24T22:15:27.450Z,6.82
2022-12-24T22:17:53.945Z,2.65
2022-12-24T22:20:20.601Z,3.50
2022-12-24T22:22:48.892Z,5.97
2022-12-24T22:25:15.785Z,6.68
2022-12-24T22:27:42.311Z,4.05
2022-12-24T22:30:09.638Z,3.80
2022-12-24T22:32:36.310Z,2.47
2022-12-24T22:35:02.951Z,4.68
2022-12-24T22:37:29.583Z,7.72
2022-12-24T22:39:56.291Z,3.22
2022-12-24T22:42:25.903Z,6.18
2022-12-24T22:44:55.736Z,4.03
2022-12-24T22:47:26.423Z,4.72
2022-12-24T22:49:54.475Z,3.38
2022-12-24T22:52:20.985Z,5.82
2022-12-24T22:54:47.491Z,3.78
2022-12-24T22:57:14.034Z,4.28
2022-12-24T22:59:40.561Z,5.40
2022-12-24T23:02:08.094Z,6.38
2022-12-24T23:04:38.797Z,2.53
2022-12-24T23:07:07.659Z,1.95
2022-12-24T23:09:34.400Z,3.83
2022-12-24T23:12:01.435Z,6.70
2022-12-24T23:14:46.491Z,4.53
2022-12-24T23:17:13.243Z,2.67
2022-12-24T23:19:39.746Z,6.40
2022-12-24T23:22:06.713Z,3.85
2022-12-24T23:24:34.887Z,7.65
2022-12-24T23:27:01.685Z,3.60
2022-12-24T23:29:29.804Z,3.80
2022-12-24T23:31:59.903Z,6.60
2022-12-24T23:34:29.457Z,2.95
2022-12-24T23:36:59.011Z,2.67
2022-12-24T23:39:26.633Z,6.13
2022-12-24T23:41:53.169Z,5.07
2022-12-24T23:44:19.649Z,2.78
2022-12-24T23:46:46.209Z,6.75
2022-12-24T23:49:15.008Z,5.00
2022-12-24T23:51:41.567Z,3.13
2022-12-24T23:54:08.196Z,4.50
2022-12-24T23:56:34.721Z,4.60
2022-12-24T23:59:02.586Z,7.15
